Time;durP1;ratioP1;P1;durP2;ratioP2;P2;SDS_P1;SDS_P2;PMS_P1;PMS_P2;Temp;Humidity;BMP_temperature;BMP_pressure;BME280_temperature;BME280_humidity;BME280_pressure;Samples;Min_cycle;Max_cycle;Signal;HPM_P1;HPM_P2
2021/05/31 00:01:02;;;;;;;4.90;4.18;;;6.10;99.90;;;;;;4733042;30;20069;-80
2021/05/31 00:03:30;;;;;;;5.00;4.60;;;6.10;99.90;;;;;;4751598;30;20071;-80
2021/05/31 00:05:58;;;;;;;8.65;4.90;;;6.20;99.90;;;;;;4734469;30;20075;-80
2021/05/31 00:08:26;;;;;;;4.35;3.45;;;6.30;99.90;;;;;;4746571;30;20064;-80
2021/05/31 00:10:54;;;;;;;4.53;4.05;;;6.30;99.90;;;;;;4712670;30;20528;-81
2021/05/31 00:13:22;;;;;;;4.15;3.78;;;6.10;99.90;;;;;;4715690;30;20060;-81
2021/05/31 00:15:50;;;;;;;4.05;3.70;;;5.90;99.90;;;;;;4715003;30;20057;-80
2021/05/31 00:18:18;;;;;;;5.50;3.88;;;5.90;99.90;;;;;;4699167;30;20060;-80
2021/05/31 00:20:46;;;;;;;4.72;4.13;;;5.90;99.90;;;;;;4714801;30;20049;-80
2021/05/31 00:23:16;;;;;;;4.88;4.47;;;6.10;99.90;;;;;;4716020;30;20076;-80
2021/05/31 00:25:45;;;;;;;5.47;4.72;;;6.10;99.90;;;;;;4712531;30;20083;-80
2021/05/31 00:28:13;;;;;;;5.90;4.82;;;6.20;99.90;;;;;;4714522;30;20507;-82
2021/05/31 00:30:42;;;;;;;4.38;4.00;;;6.20;99.90;;;;;;4713564;30;20053;-80
2021/05/31 00:33:10;;;;;;;6.55;4.13;;;6.10;99.90;;;;;;4715546;30;20444;-80
2021/05/31 00:35:39;;;;;;;5.80;3.65;;;6.20;99.90;;;;;;4704151;30;20503;-78
2021/05/31 00:38:13;;;;;;;6.55;4.10;;;6.30;99.90;;;;;;4735400;30;20530;-77
2021/05/31 00:40:41;;;;;;;4.38;4.07;;;6.40;99.90;;;;;;4731899;30;20226;-81
2021/05/31 00:43:09;;;;;;;4.72;4.18;;;6.50;99.90;;;;;;4751155;30;20090;-80
2021/05/31 00:45:37;;;;;;;7.38;4.88;;;6.50;99.90;;;;;;4718524;30;20059;-80
2021/05/31 00:48:05;;;;;;;5.18;4.65;;;6.30;99.90;;;;;;4715288;30;20061;-80
2021/05/31 00:50:34;;;;;;;5.05;4.50;;;6.00;99.90;;;;;;4714468;30;20061;-80
2021/05/31 00:53:02;;;;;;;6.72;3.58;;;5.90;99.90;;;;;;4715105;30;20068;-81
2021/05/31 00:55:30;;;;;;;4.30;3.97;;;5.90;99.90;;;;;;4698191;30;20064;-80
2021/05/31 00:57:58;;;;;;;7.43;4.57;;;5.90;99.90;;;;;;4715077;30;20049;-81
2021/05/31 01:00:26;;;;;;;6.80;4.57;;;5.90;99.90;;;;;;4714634;30;20069;-82
2021/05/31 01:02:56;;;;;;;11.13;3.95;;;5.90;99.90;;;;;;4699581;30;20065;-81
2021/05/31 01:05:24;;;;;;;8.27;5.72;;;6.00;99.90;;;;;;4714785;30;20072;-81
2021/05/31 01:07:57;;;;;;;3.95;3.65;;;6.00;99.90;;;;;;4715550;30;20431;-82
2021/05/31 01:11:14;;;;;;;6.40;4.60;;;6.10;99.90;;;;;;4682375;30;20193;-80
2021/05/31 01:13:59;;;;;;;4.32;3.92;;;6.30;99.90;;;;;;4626942;30;20055;-82
2021/05/31 01:16:54;;;;;;;5.05;4.40;;;6.30;99.90;;;;;;4684851;30;20057;-80
2021/05/31 01:19:50;;;;;;;6.00;4.53;;;6.40;99.90;;;;;;4703134;30;20325;-81
2021/05/31 01:22:33;;;;;;;5.88;5.22;;;6.40;99.90;;;;;;4714532;30;20053;-80
2021/05/31 01:25:16;;;;;;;6.25;4.88;;;6.30;99.90;;;;;;4712871;30;20420;-82
2021/05/31 01:28:14;;;;;;;4.30;3.72;;;6.40;99.90;;;;;;4714527;30;20057;-81
2021/05/31 01:30:46;;;;;;;5.63;4.90;;;6.40;99.90;;;;;;4714249;30;20083;-80
2021/05/31 01:33:18;;;;;;;4.72;3.85;;;6.50;99.90;;;;;;4713015;30;20053;-82
2021/05/31 01:35:48;;;;;;;4.30;3.90;;;6.50;99.90;;;;;;4719829;30;20079;-81
2021/05/31 01:38:21;;;;;;;6.60;4.50;;;6.60;99.90;;;;;;4733929;30;20430;-81
2021/05/31 01:40:50;;;;;;;5.88;4.03;;;6.70;99.90;;;;;;4731185;30;20411;-81
2021/05/31 01:43:19;;;;;;;4.90;4.43;;;6.80;99.90;;;;;;4749934;30;20059;-81
2021/05/31 01:45:48;;;;;;;5.40;4.00;;;6.90;99.90;;;;;;4733358;30;20530;-82
2021/05/31 01:48:16;;;;;;;4.15;3.40;;;6.90;99.90;;;;;;4734197;30;20063;-82
2021/05/31 01:50:44;;;;;;;5.97;4.82;;;6.90;99.90;;;;;;4732563;30;20500;-80
2021/05/31 01:53:14;;;;;;;6.95;4.03;;;7.00;99.90;;;;;;4733462;30;20431;-80
2021/05/31 01:55:43;;;;;;;8.07;5.13;;;7.00;99.90;;;;;;4747920;30;20059;-80
2021/05/31 01:58:12;;;;;;;3.42;3.08;;;7.00;99.90;;;;;;4733332;30;20052;-83
2021/05/31 02:00:41;;;;;;;4.85;4.25;;;7.00;99.90;;;;;;4732630;30;20494;-81
2021/05/31 02:03:09;;;;;;;4.10;3.08;;;7.00;99.90;;;;;;4749531;30;20077;-81
2021/05/31 02:05:38;;;;;;;4.80;4.25;;;6.90;99.90;;;;;;4732914;30;20511;-81
2021/05/31 02:08:06;;;;;;;9.38;6.65;;;6.90;99.90;;;;;;4748419;30;20060;-83
2021/05/31 02:10:34;;;;;;;5.55;4.85;;;6.90;99.90;;;;;;4697340;30;20056;-82
2021/05/31 02:13:04;;;;;;;7.97;5.40;;;6.90;99.90;;;;;;4713885;30;20542;-83
2021/05/31 02:15:41;;;;;;;3.65;3.33;;;6.90;99.90;;;;;;4713133;30;20064;-83
2021/05/31 02:18:25;;;;;;;11.85;4.57;;;6.80;99.90;;;;;;4712516;30;20527;-81
2021/05/31 02:21:01;;;;;;;4.57;4.18;;;6.70;99.90;;;;;;4712056;30;20053;-83
2021/05/31 02:23:30;;;;;;;4.55;3.90;;;6.50;99.90;;;;;;4698395;30;20064;-81
2021/05/31 02:25:59;;;;;;;8.13;4.22;;;6.30;99.90;;;;;;4710649;30;20057;-80
2021/05/31 02:28:26;;;;;;;6.40;4.07;;;6.20;99.90;;;;;;4713330;30;20069;-81
2021/05/31 02:30:55;;;;;;;5.93;4.03;;;6.10;99.90;;;;;;4697984;30;20060;-83
2021/05/31 02:33:24;;;;;;;6.57;3.80;;;6.10;99.90;;;;;;4698006;30;20049;-81
2021/05/31 02:35:52;;;;;;;4.25;3.72;;;6.10;99.90;;;;;;4719390;30;20498;-81
2021/05/31 02:38:20;;;;;;;5.50;4.75;;;5.90;99.90;;;;;;4733122;30;20048;-80
2021/05/31 02:40:48;;;;;;;5.57;5.07;;;5.70;99.90;;;;;;4746552;30;20048;-82
2021/05/31 02:43:16;;;;;;;6.05;4.13;;;5.70;99.90;;;;;;4749054;30;20081;-80
2021/05/31 02:45:44;;;;;;;4.25;3.30;;;5.80;99.90;;;;;;4732190;30;20056;-80
2021/05/31 02:48:12;;;;;;;7.57;4.57;;;5.70;99.90;;;;;;4714057;30;20066;-80
2021/05/31 02:50:40;;;;;;;7.13;3.97;;;5.40;99.90;;;;;;4711290;30;20408;-81
2021/05/31 02:53:08;;;;;;;10.45;5.40;;;5.30;99.90;;;;;;4697633;30;20049;-81
2021/05/31 02:55:37;;;;;;;5.95;4.38;;;5.20;99.90;;;;;;4696281;30;20069;-81
2021/05/31 02:58:05;;;;;;;5.25;3.63;;;5.10;99.90;;;;;;4713356;30;20416;-81
2021/05/31 03:00:33;;;;;;;4.72;4.30;;;5.00;99.90;;;;;;4711624;30;20423;-81
2021/05/31 03:03:01;;;;;;;5.25;4.22;;;5.00;99.90;;;;;;4712237;30;20065;-81
2021/05/31 03:05:29;;;;;;;5.82;4.75;;;4.90;99.90;;;;;;4711376;30;20060;-80
2021/05/31 03:07:58;;;;;;;5.70;4.60;;;4.80;99.90;;;;;;4698522;30;20072;-80
2021/05/31 03:10:28;;;;;;;5.78;4.88;;;4.80;99.90;;;;;;4714520;30;20053;-80
2021/05/31 03:12:58;;;;;;;7.75;5.47;;;4.80;99.90;;;;;;4716611;30;20041;-81
2021/05/31 03:15:27;;;;;;;5.82;5.25;;;4.80;99.90;;;;;;4717664;30;20061;-80
2021/05/31 03:17:58;;;;;;;7.07;5.22;;;4.80;99.90;;;;;;4715518;30;20096;-80
2021/05/31 03:20:29;;;;;;;5.80;4.55;;;4.80;99.90;;;;;;4715761;30;20416;-80
2021/05/31 03:22:57;;;;;;;8.70;5.43;;;4.90;99.90;;;;;;4715552;30;20053;-81
2021/05/31 03:25:25;;;;;;;5.63;4.75;;;4.70;99.90;;;;;;4713906;30;20056;-80
2021/05/31 03:27:55;;;;;;;7.22;5.22;;;4.60;99.90;;;;;;4716157;30;20069;-80
2021/05/31 03:30:23;;;;;;;5.43;4.93;;;4.60;99.90;;;;;;4715885;30;20053;-80
2021/05/31 03:32:51;;;;;;;5.97;4.93;;;4.60;99.90;;;;;;4716470;30;20041;-80
2021/05/31 03:35:20;;;;;;;4.53;4.10;;;4.50;99.90;;;;;;4716791;30;20065;-80
2021/05/31 03:37:48;;;;;;;6.65;5.38;;;4.50;99.90;;;;;;4715254;30;20045;-80
2021/05/31 03:40:21;;;;;;;6.63;5.57;;;4.50;99.90;;;;;;4698822;30;20065;-80
2021/05/31 03:42:54;;;;;;;6.78;6.18;;;4.60;99.90;;;;;;4686015;30;20061;-81
2021/05/31 03:45:22;;;;;;;6.65;4.72;;;4.60;99.90;;;;;;4686408;30;20064;-80
2021/05/31 03:47:51;;;;;;;5.20;3.72;;;4.70;99.90;;;;;;4704919;30;20057;-80
2021/05/31 03:50:19;;;;;;;4.57;4.13;;;4.60;99.90;;;;;;4715736;30;20064;-80
2021/05/31 03:52:49;;;;;;;5.63;4.75;;;4.60;99.90;;;;;;4700337;30;20049;-80
2021/05/31 03:55:18;;;;;;;7.97;5.95;;;4.60;99.90;;;;;;4714757;30;20053;-81
2021/05/31 03:57:46;;;;;;;5.28;4.78;;;4.70;99.90;;;;;;4700517;30;20061;-80
2021/05/31 04:00:15;;;;;;;9.73;4.72;;;4.50;99.90;;;;;;4714866;30;20487;-80
2021/05/31 04:02:45;;;;;;;5.55;4.13;;;4.50;99.90;;;;;;4697241;30;20065;-80
2021/05/31 04:05:15;;;;;;;4.75;3.85;;;4.40;99.90;;;;;;4682752;30;20065;-80
2021/05/31 04:13:21;;;;;;;5.82;4.57;;;4.60;99.90;;;;;;4698899;30;20088;-81
2021/05/31 04:15:49;;;;;;;6.68;5.53;;;4.70;99.90;;;;;;4699082;30;20095;-83
2021/05/31 04:18:17;;;;;;;6.50;5.78;;;4.80;99.90;;;;;;4683061;30;20057;-81
2021/05/31 04:20:45;;;;;;;6.95;5.57;;;5.10;99.90;;;;;;4697183;30;20061;-80
2021/05/31 04:23:13;;;;;;;4.72;4.20;;;5.40;99.90;;;;;;4698711;30;20068;-80
2021/05/31 04:25:40;;;;;;;13.13;5.55;;;5.70;99.90;;;;;;4695679;30;20061;-82
2021/05/31 04:28:08;;;;;;;7.80;6.70;;;6.00;99.90;;;;;;4697991;30;20053;-83
2021/05/31 04:30:36;;;;;;;5.72;4.13;;;6.30;99.90;;;;;;4697232;30;20053;-81
2021/05/31 04:33:04;;;;;;;4.68;4.25;;;6.60;99.90;;;;;;4682452;30;20064;-82
2021/05/31 04:35:32;;;;;;;7.80;4.75;;;6.80;99.90;;;;;;4685348;30;20065;-83
2021/05/31 04:38:00;;;;;;;7.07;3.92;;;7.10;99.90;;;;;;4733158;30;20048;-83
2021/05/31 04:40:31;;;;;;;5.10;4.43;;;7.40;99.90;;;;;;4729124;30;20519;-82
2021/05/31 04:42:58;;;;;;;8.35;5.85;;;7.70;99.90;;;;;;4745851;30;20060;-81
2021/05/31 04:45:27;;;;;;;5.35;4.85;;;8.00;99.90;;;;;;4731733;30;20408;-81
2021/05/31 04:47:55;;;;;;;5.20;4.25;;;8.30;99.90;;;;;;4702036;30;20073;-81
2021/05/31 04:50:23;;;;;;;6.75;4.55;;;8.50;99.90;;;;;;4695872;30;20060;-83
2021/05/31 04:52:51;;;;;;;12.82;4.28;;;8.70;99.90;;;;;;4696426;30;20052;-83
2021/05/31 04:55:19;;;;;;;7.65;5.47;;;8.80;99.90;;;;;;4695106;30;20420;-82
2021/05/31 04:57:47;;;;;;;5.72;4.47;;;8.90;99.90;;;;;;4710773;30;20054;-82
2021/05/31 05:00:20;;;;;;;6.57;5.55;;;9.20;99.90;;;;;;4668643;30;20071;-84
2021/05/31 05:02:47;;;;;;;5.70;4.03;;;9.40;99.90;;;;;;4696138;30;20069;-84
2021/05/31 05:05:15;;;;;;;6.53;4.63;;;9.70;99.90;;;;;;4682051;30;20053;-83
2021/05/31 05:07:46;;;;;;;5.88;5.28;;;9.80;99.90;;;;;;4698768;30;20057;-83
2021/05/31 05:10:20;;;;;;;5.43;4.32;;;9.80;99.90;;;;;;4695597;30;20058;-83
2021/05/31 05:12:51;;;;;;;8.30;5.00;;;10.00;99.90;;;;;;4696225;30;20496;-83
2021/05/31 05:15:21;;;;;;;6.03;4.73;;;10.20;99.90;;;;;;4696047;30;20061;-83
2021/05/31 05:17:49;;;;;;;5.55;4.50;;;10.40;99.90;;;;;;4696091;30;20297;-83
2021/05/31 05:20:19;;;;;;;5.93;5.32;;;10.60;99.90;;;;;;4681873;30;20124;-83
2021/05/31 05:22:47;;;;;;;7.10;5.20;;;10.80;99.90;;;;;;4667339;30;20057;-84
2021/05/31 05:25:16;;;;;;;8.48;4.93;;;11.00;99.90;;;;;;4694509;30;20072;-84
2021/05/31 05:27:46;;;;;;;7.85;5.65;;;11.10;99.70;;;;;;4682237;30;20053;-82
2021/05/31 05:30:17;;;;;;;4.60;3.72;;;11.40;99.90;;;;;;4695296;30;20437;-82
2021/05/31 05:32:49;;;;;;;4.35;3.95;;;11.70;99.80;;;;;;4696868;30;20056;-82
2021/05/31 05:35:25;;;;;;;5.53;5.03;;;12.10;99.20;;;;;;4696979;30;20433;-85
2021/05/31 05:38:09;;;;;;;7.35;4.93;;;12.30;98.30;;;;;;4696483;30;20054;-83
2021/05/31 05:48:42;;;;;;;5.35;4.57;;;12.30;98.00;;;;;;4695438;30;20061;-83
2021/05/31 05:51:10;;;;;;;8.77;4.90;;;12.50;97.80;;;;;;4694930;30;20066;-82
2021/05/31 05:53:40;;;;;;;4.80;4.28;;;12.50;97.60;;;;;;4695479;30;20429;-82
2021/05/31 05:56:11;;;;;;;6.80;4.00;;;12.70;98.10;;;;;;4694353;30;20529;-83
2021/05/31 05:58:39;;;;;;;6.40;5.70;;;12.70;97.30;;;;;;4696873;30;20061;-83
2021/05/31 06:01:09;;;;;;;8.40;5.20;;;12.60;98.40;;;;;;4696649;30;20057;-82
2021/05/31 06:03:38;;;;;;;9.55;5.05;;;12.90;97.60;;;;;;4714245;30;20065;-84
2021/05/31 06:06:07;;;;;;;7.88;4.63;;;13.20;96.50;;;;;;4712771;30;20064;-84
2021/05/31 06:08:36;;;;;;;6.07;3.67;;;12.90;96.50;;;;;;4697844;30;20238;-84
2021/05/31 06:11:05;;;;;;;6.93;4.90;;;12.80;96.30;;;;;;4711121;30;20072;-83
2021/05/31 06:13:33;;;;;;;7.82;5.05;;;12.90;96.70;;;;;;4698112;30;20041;-84
2021/05/31 06:16:02;;;;;;;4.40;4.00;;;12.80;95.90;;;;;;4713376;30;20068;-83
2021/05/31 06:18:30;;;;;;;8.35;5.78;;;13.10;96.40;;;;;;4698287;30;20062;-82
2021/05/31 06:20:58;;;;;;;7.80;5.47;;;13.50;97.00;;;;;;4712991;30;20401;-83
2021/05/31 06:23:26;;;;;;;9.75;5.25;;;13.90;95.40;;;;;;4712861;30;20068;-83
2021/05/31 06:25:54;;;;;;;9.50;4.90;;;14.00;95.90;;;;;;4712292;30;20045;-82
2021/05/31 06:28:22;;;;;;;7.47;5.70;;;14.10;93.50;;;;;;4714285;30;20060;-82
2021/05/31 06:30:50;;;;;;;13.63;9.50;;;13.90;93.60;;;;;;4712572;30;20053;-82
2021/05/31 06:33:18;;;;;;;9.63;5.20;;;14.10;94.80;;;;;;4713598;30;20526;-84
2021/05/31 06:35:48;;;;;;;5.43;4.75;;;14.50;94.20;;;;;;4719614;30;20377;-82
2021/05/31 06:38:16;;;;;;;10.98;5.00;;;14.30;93.10;;;;;;4748944;30;20063;-83
2021/05/31 06:40:48;;;;;;;7.82;5.03;;;14.20;93.00;;;;;;4746545;30;20067;-82
2021/05/31 06:43:16;;;;;;;5.97;4.63;;;14.40;93.50;;;;;;4748434;30;20427;-82
2021/05/31 06:45:44;;;;;;;8.48;5.03;;;14.60;92.60;;;;;;4747562;30;20071;-82
2021/05/31 06:48:11;;;;;;;6.28;5.68;;;14.60;93.30;;;;;;4712961;30;20065;-83
2021/05/31 06:50:39;;;;;;;6.00;4.50;;;15.20;92.60;;;;;;4711663;30;20064;-82
2021/05/31 06:53:07;;;;;;;5.82;4.97;;;15.10;93.10;;;;;;4697672;30;20052;-82
2021/05/31 06:55:35;;;;;;;4.88;3.92;;;15.00;92.90;;;;;;4712392;30;20110;-82
2021/05/31 06:58:03;;;;;;;6.75;4.25;;;15.20;92.90;;;;;;4697726;30;20131;-82
2021/05/31 07:00:32;;;;;;;4.78;4.28;;;15.50;93.00;;;;;;4697109;30;20421;-84
2021/05/31 07:03:00;;;;;;;7.10;5.50;;;15.50;90.50;;;;;;4712551;30;20057;-83
2021/05/31 07:05:28;;;;;;;5.63;4.70;;;15.50;93.20;;;;;;4712152;30;20057;-84
2021/05/31 07:07:58;;;;;;;7.07;4.82;;;15.50;90.30;;;;;;4712664;30;20065;-82
2021/05/31 07:10:28;;;;;;;8.90;5.90;;;15.40;91.90;;;;;;4710144;30;20063;-77
2021/05/31 07:12:57;;;;;;;9.48;6.45;;;15.90;91.10;;;;;;4712103;30;20057;-77
2021/05/31 07:15:25;;;;;;;4.35;3.95;;;16.20;89.70;;;;;;4712761;30;20061;-81
2021/05/31 07:17:53;;;;;;;4.70;4.03;;;16.50;90.40;;;;;;4712205;30;20060;-80
2021/05/31 07:20:22;;;;;;;6.53;4.68;;;16.70;87.50;;;;;;4711609;30;20060;-80
2021/05/31 07:22:51;;;;;;;9.02;4.90;;;16.80;85.60;;;;;;4712746;30;20057;-80
2021/05/31 07:25:19;;;;;;;7.28;4.38;;;16.90;87.90;;;;;;4711773;30;20053;-79
2021/05/31 07:27:48;;;;;;;4.38;3.97;;;16.80;87.10;;;;;;4712086;30;20064;-80
2021/05/31 07:30:19;;;;;;;5.15;3.70;;;16.90;87.00;;;;;;4712632;30;20053;-80
2021/05/31 07:32:47;;;;;;;6.93;3.92;;;16.50;86.50;;;;;;4711880;30;20064;-80
2021/05/31 07:35:16;;;;;;;5.03;4.13;;;15.70;86.60;;;;;;4697602;30;20060;-81
2021/05/31 07:37:44;;;;;;;6.72;4.20;;;15.70;89.40;;;;;;4731721;30;20416;-79
2021/05/31 07:40:14;;;;;;;14.27;5.22;;;15.70;86.80;;;;;;4746671;30;20064;-81
2021/05/31 07:42:44;;;;;;;5.65;4.45;;;15.60;87.90;;;;;;4732487;30;20072;-78
2021/05/31 07:45:14;;;;;;;4.95;4.50;;;15.60;86.50;;;;;;4748108;30;20530;-81
2021/05/31 07:47:41;;;;;;;4.75;4.25;;;16.10;85.90;;;;;;4732675;30;20060;-80
2021/05/31 07:50:11;;;;;;;5.55;3.63;;;16.60;85.80;;;;;;4716774;30;20522;-80
2021/05/31 07:52:39;;;;;;;4.65;4.10;;;16.60;85.80;;;;;;4731419;30;20064;-82
2021/05/31 07:55:11;;;;;;;4.57;3.85;;;16.60;81.60;;;;;;4718513;30;20048;-81
2021/05/31 07:57:41;;;;;;;5.30;4.28;;;16.50;82.70;;;;;;4751286;30;20515;-81
2021/05/31 08:00:12;;;;;;;6.50;3.93;;;17.00;83.80;;;;;;4735192;30;20140;-82
2021/05/31 08:02:42;;;;;;;5.38;4.40;;;16.80;82.20;;;;;;4732098;30;20056;-78
2021/05/31 08:05:13;;;;;;;3.60;3.30;;;16.90;83.70;;;;;;4733278;30;20052;-80
2021/05/31 08:07:43;;;;;;;4.25;3.30;;;16.70;83.40;;;;;;4733769;30;20492;-81
2021/05/31 08:10:12;;;;;;;10.50;4.53;;;17.30;77.80;;;;;;4700890;30;20084;-81
2021/05/31 08:12:40;;;;;;;5.07;4.68;;;18.80;76.60;;;;;;4698429;30;20064;-79
2021/05/31 08:15:09;;;;;;;3.92;3.47;;;18.30;79.90;;;;;;4697655;30;20058;-79
2021/05/31 08:17:38;;;;;;;5.22;4.15;;;17.60;80.00;;;;;;4696083;30;20099;-78
2021/05/31 08:20:08;;;;;;;14.93;3.40;;;17.00;82.10;;;;;;4698274;30;20065;-79
2021/05/31 08:22:36;;;;;;;3.97;3.47;;;17.00;80.10;;;;;;4698558;30;20060;-78
2021/05/31 08:25:05;;;;;;;5.68;3.05;;;17.50;76.30;;;;;;4695765;30;20080;-81
2021/05/31 08:27:33;;;;;;;4.72;3.65;;;17.00;77.90;;;;;;4697468;30;20549;-78
2021/05/31 08:30:03;;;;;;;3.20;2.90;;;16.30;80.60;;;;;;4681442;30;20050;-80
2021/05/31 08:32:31;;;;;;;4.43;3.65;;;16.00;78.50;;;;;;4697780;30;20061;-79
2021/05/31 08:34:59;;;;;;;3.40;2.63;;;15.80;83.30;;;;;;4697295;30;20493;-79
2021/05/31 08:37:27;;;;;;;4.68;4.28;;;15.70;83.00;;;;;;4712662;30;20075;-79
2021/05/31 08:39:55;;;;;;;6.75;2.55;;;15.50;82.50;;;;;;4730028;30;20061;-82
2021/05/31 08:42:23;;;;;;;3.47;3.17;;;15.20;79.60;;;;;;4731250;30;20424;-81
2021/05/31 08:44:51;;;;;;;3.28;2.92;;;15.00;81.30;;;;;;4731178;30;20445;-80
2021/05/31 08:47:19;;;;;;;5.03;3.95;;;14.80;82.60;;;;;;4710589;30;20088;-79
2021/05/31 08:49:50;;;;;;;2.78;2.58;;;14.80;83.90;;;;;;4681940;30;20539;-79
2021/05/31 08:52:18;;;;;;;5.63;3.20;;;15.10;88.80;;;;;;4710649;30;20065;-78
2021/05/31 08:54:46;;;;;;;3.13;2.72;;;15.10;86.60;;;;;;4695966;30;20292;-80
2021/05/31 08:57:14;;;;;;;3.45;2.30;;;15.20;81.50;;;;;;4697454;30;20061;-80
2021/05/31 08:59:42;;;;;;;2.95;2.42;;;15.30;85.40;;;;;;4698358;30;20085;-80
2021/05/31 09:02:10;;;;;;;4.25;2.28;;;15.20;77.90;;;;;;4704885;30;20053;-80
2021/05/31 09:04:45;;;;;;;3.53;3.20;;;15.10;82.60;;;;;;4712240;30;20061;-78
2021/05/31 09:07:19;;;;;;;3.30;2.65;;;14.90;79.70;;;;;;4713864;30;20386;-83
2021/05/31 09:09:47;;;;;;;3.03;2.58;;;14.80;80.40;;;;;;4712204;30;20523;-80
2021/05/31 09:12:22;;;;;;;2.92;2.63;;;15.00;79.40;;;;;;4684194;30;20064;-79
2021/05/31 09:14:55;;;;;;;2.72;2.53;;;14.90;79.20;;;;;;4698004;30;20061;-78
2021/05/31 09:17:28;;;;;;;2.88;2.15;;;15.00;81.90;;;;;;4713058;30;20466;-81
2021/05/31 09:19:56;;;;;;;2.70;2.15;;;15.10;76.00;;;;;;4713720;30;20065;-81
2021/05/31 09:22:25;;;;;;;4.10;3.10;;;15.00;75.90;;;;;;4711807;30;20049;-80
2021/05/31 09:24:57;;;;;;;3.22;2.60;;;15.00;81.90;;;;;;4696577;30;20049;-78
2021/05/31 09:27:26;;;;;;;5.03;2.80;;;15.10;85.70;;;;;;4713259;30;20061;-78
2021/05/31 09:30:00;;;;;;;3.08;2.75;;;15.00;83.00;;;;;;4712074;30;20568;-78
2021/05/31 09:32:30;;;;;;;2.95;2.63;;;15.00;82.20;;;;;;4697973;30;20064;-78
2021/05/31 09:35:12;;;;;;;2.58;2.38;;;15.00;84.20;;;;;;4713802;30;20099;-81
2021/05/31 09:37:45;;;;;;;3.28;2.92;;;15.20;80.50;;;;;;4747074;30;20419;-80
2021/05/31 09:40:22;;;;;;;3.45;3.15;;;14.90;79.40;;;;;;4730419;30;20056;-78
2021/05/31 09:42:58;;;;;;;3.15;2.92;;;14.70;81.40;;;;;;4718326;30;20056;-79
2021/05/31 09:45:29;;;;;;;2.45;2.25;;;14.70;82.40;;;;;;4746553;30;20048;-80
2021/05/31 09:48:01;;;;;;;2.58;2.38;;;14.80;77.00;;;;;;4733265;30;20067;-82
2021/05/31 09:50:31;;;;;;;2.83;2.50;;;14.80;78.30;;;;;;4709459;30;20049;-79
2021/05/31 09:53:09;;;;;;;2.95;2.63;;;14.90;79.60;;;;;;4732389;30;20048;-78
2021/05/31 09:55:38;;;;;;;2.25;1.98;;;14.80;79.80;;;;;;4747399;30;20153;-79
2021/05/31 09:58:13;;;;;;;2.28;2.08;;;14.80;83.40;;;;;;4748610;30;20064;-78
2021/05/31 10:00:48;;;;;;;2.30;2.10;;;15.20;79.40;;;;;;4748079;30;20060;-81
2021/05/31 10:05:59;;;;;;;3.17;2.53;;;15.00;76.60;;;;;;4748880;30;20546;-79
2021/05/31 10:08:40;;;;;;;4.07;3.25;;;15.10;85.00;;;;;;4746220;30;20067;-80
2021/05/31 10:11:09;;;;;;;;;;;15.20;79.00;;;;;;4711353;30;20065;-78
2021/05/31 10:13:40;;;;;;;3.00;1.80;;;15.00;79.40;;;;;;4714118;30;19927;-81
2021/05/31 10:16:09;;;;;;;2.70;2.15;;;15.00;82.50;;;;;;4714541;30;20416;-82
2021/05/31 10:18:40;;;;;;;5.90;2.35;;;15.10;79.10;;;;;;4713713;30;20057;-80
2021/05/31 10:21:13;;;;;;;3.05;2.53;;;15.20;80.90;;;;;;4711882;30;20056;-80
2021/05/31 10:23:41;;;;;;;2.63;2.42;;;15.10;79.50;;;;;;4713188;30;20072;-82
2021/05/31 10:26:11;;;;;;;2.05;1.85;;;15.10;79.00;;;;;;4710737;30;20049;-82
2021/05/31 10:28:42;;;;;;;7.93;1.90;;;15.20;81.30;;;;;;4713276;30;20394;-82
2021/05/31 10:31:11;;;;;;;2.75;2.53;;;15.20;76.80;;;;;;4697865;30;20072;-82
2021/05/31 10:33:40;;;;;;;2.08;1.88;;;15.10;80.10;;;;;;4698035;30;20057;-86
2021/05/31 10:36:32;;;;;;;4.38;2.20;;;15.30;77.00;;;;;;4694675;30;20067;-82
2021/05/31 10:39:03;;;;;;;4.47;2.80;;;15.30;82.70;;;;;;4716553;30;20495;-82
2021/05/31 10:41:31;;;;;;;5.43;2.72;;;15.40;79.10;;;;;;4716586;30;20048;-83
2021/05/31 10:44:00;;;;;;;2.40;2.20;;;15.50;78.70;;;;;;4749025;30;20060;-81
2021/05/31 10:46:30;;;;;;;6.00;2.58;;;15.50;76.40;;;;;;4722339;30;20049;-81
2021/05/31 10:49:04;;;;;;;2.97;2.60;;;15.40;77.10;;;;;;4697739;30;20080;-84
2021/05/31 10:51:38;;;;;;;3.03;2.83;;;15.40;77.80;;;;;;4713307;30;20552;-85
2021/05/31 10:54:08;;;;;;;8.05;4.10;;;15.50;81.50;;;;;;4712251;30;20049;-83
2021/05/31 10:56:36;;;;;;;5.22;2.67;;;15.60;84.90;;;;;;4697546;30;20057;-83
2021/05/31 10:59:08;;;;;;;11.73;2.42;;;15.80;76.80;;;;;;4683517;30;20052;-84
2021/05/31 11:01:39;;;;;;;3.25;2.95;;;15.90;79.10;;;;;;4711504;30;20056;-81
2021/05/31 11:04:19;;;;;;;3.63;2.85;;;16.00;87.00;;;;;;4713700;30;20138;-80
2021/05/31 11:06:53;;;;;;;1.95;1.83;;;16.00;74.70;;;;;;4713377;30;20068;-83
2021/05/31 11:09:29;;;;;;;2.30;2.10;;;15.80;77.20;;;;;;4695726;30;20064;-82
2021/05/31 11:12:00;;;;;;;2.40;1.90;;;15.90;76.00;;;;;;4697840;30;20519;-82
2021/05/31 11:14:34;;;;;;;2.03;1.88;;;16.00;79.10;;;;;;4712223;30;20060;-84
2021/05/31 11:17:08;;;;;;;3.25;2.25;;;16.10;75.90;;;;;;4697436;30;20060;-82
2021/05/31 11:19:38;;;;;;;10.23;2.47;;;16.00;74.70;;;;;;4713510;30;20057;-80
2021/05/31 11:22:19;;;;;;;2.10;2.00;;;15.90;74.70;;;;;;4712659;30;20060;-81
2021/05/31 11:25:03;;;;;;;2.38;2.17;;;15.80;87.10;;;;;;4711615;30;20052;-83
2021/05/31 11:27:40;;;;;;;2.47;2.00;;;16.00;78.00;;;;;;4698102;30;20477;-82
2021/05/31 11:30:17;;;;;;;3.03;2.70;;;16.20;84.20;;;;;;4713706;30;20053;-83
2021/05/31 11:32:45;;;;;;;3.90;3.08;;;16.30;76.80;;;;;;4714988;30;20053;-82
2021/05/31 11:35:15;;;;;;;2.50;2.00;;;16.30;81.70;;;;;;4716311;30;20061;-84
2021/05/31 11:38:03;;;;;;;2.20;1.90;;;16.50;73.90;;;;;;4715221;30;20049;-84
2021/05/31 11:40:33;;;;;;;2.10;2.00;;;16.40;75.50;;;;;;4698842;30;20053;-84
2021/05/31 11:43:04;;;;;;;3.20;2.53;;;16.40;76.50;;;;;;4700716;30;20445;-83
2021/05/31 11:45:36;;;;;;;2.85;2.08;;;16.30;81.10;;;;;;4728964;30;20056;-82
2021/05/31 11:48:13;;;;;;;4.22;2.60;;;16.30;74.10;;;;;;4687507;30;20065;-85
2021/05/31 11:50:43;;;;;;;3.30;2.45;;;16.30;74.80;;;;;;4699776;30;20049;-82
2021/05/31 11:53:15;;;;;;;3.63;2.47;;;16.30;81.40;;;;;;4700627;30;20429;-85
2021/05/31 11:55:43;;;;;;;2.25;2.05;;;16.50;86.50;;;;;;4715080;30;20068;-82
2021/05/31 11:58:11;;;;;;;3.47;3.17;;;16.60;76.90;;;;;;4714970;30;20052;-82
2021/05/31 12:00:42;;;;;;;3.97;3.10;;;16.70;79.50;;;;;;4715386;30;20065;-85
2021/05/31 12:03:21;;;;;;;;;;;16.80;76.10;;;;;;4717048;30;20053;-82
2021/05/31 12:05:55;;;;;;;2.88;2.28;;;16.80;76.10;;;;;;4716029;30;19930;-82
2021/05/31 12:08:23;;;;;;;6.05;3.33;;;16.90;84.20;;;;;;4700363;30;20053;-81
2021/05/31 12:10:52;;;;;;;4.43;2.03;;;16.90;80.50;;;;;;4714125;30;20056;-81
2021/05/31 12:13:28;;;;;;;2.55;2.35;;;16.70;80.90;;;;;;4716199;30;20060;-82
2021/05/31 12:15:56;;;;;;;4.68;2.83;;;16.70;78.40;;;;;;4716498;30;20061;-83
2021/05/31 12:18:27;;;;;;;3.65;2.20;;;16.70;79.80;;;;;;4715840;30;20072;-81
2021/05/31 12:21:02;;;;;;;2.38;2.17;;;16.80;77.20;;;;;;4699256;30;20045;-84
2021/05/31 12:23:30;;;;;;;2.30;1.73;;;16.70;78.40;;;;;;4685617;30;20056;-83
2021/05/31 12:26:01;;;;;;;3.08;2.20;;;16.50;73.80;;;;;;4712687;30;20245;-86
2021/05/31 12:28:34;;;;;;;2.13;1.92;;;16.50;74.70;;;;;;4700147;30;20064;-82
2021/05/31 12:31:04;;;;;;;2.97;2.67;;;16.50;78.30;;;;;;4715316;30;20057;-82
2021/05/31 12:33:32;;;;;;;2.92;2.28;;;16.50;78.40;;;;;;4699772;30;20049;-82
2021/05/31 12:36:03;;;;;;;4.00;2.85;;;16.60;75.10;;;;;;4724165;30;20086;-83
2021/05/31 12:38:31;;;;;;;2.83;2.40;;;16.50;76.90;;;;;;4734684;30;20048;-83
2021/05/31 12:41:00;;;;;;;3.95;2.22;;;16.60;81.00;;;;;;4731274;30;20069;-83
2021/05/31 12:43:33;;;;;;;13.57;4.00;;;16.60;76.20;;;;;;4720465;30;20057;-81
2021/05/31 12:46:02;;;;;;;3.40;2.45;;;16.60;76.10;;;;;;4746777;30;20507;-82
2021/05/31 12:48:31;;;;;;;2.83;2.10;;;16.60;78.90;;;;;;4699563;30;20049;-83
2021/05/31 12:51:12;;;;;;;2.38;2.17;;;16.50;74.40;;;;;;4714088;30;20057;-84
2021/05/31 12:53:42;;;;;;;2.00;1.90;;;16.50;73.40;;;;;;4715314;30;20061;-83
2021/05/31 12:56:10;;;;;;;3.17;1.85;;;16.60;74.00;;;;;;4712909;30;20057;-85
2021/05/31 12:59:07;;;;;;;1.92;1.83;;;16.90;73.70;;;;;;4698224;30;20064;-83
2021/05/31 13:01:35;;;;;;;3.22;2.92;;;16.70;73.80;;;;;;4714628;30;20061;-83
2021/05/31 13:04:04;;;;;;;3.10;2.85;;;16.70;72.80;;;;;;4699608;30;20073;-82
2021/05/31 13:06:34;;;;;;;3.05;2.00;;;16.70;74.00;;;;;;4715214;30;20497;-83
2021/05/31 13:09:08;;;;;;;2.83;2.60;;;16.80;72.30;;;;;;4699014;30;20045;-83
2021/05/31 13:11:43;;;;;;;3.58;3.03;;;16.70;72.00;;;;;;4698819;30;20505;-81
2021/05/31 13:14:23;;;;;;;3.88;2.08;;;16.60;74.00;;;;;;4699546;30;20095;-83
2021/05/31 13:16:55;;;;;;;6.95;4.72;;;16.60;72.40;;;;;;4685213;30;20056;-86
2021/05/31 13:19:24;;;;;;;3.15;2.45;;;16.70;68.60;;;;;;4714012;30;20412;-84
2021/05/31 13:22:04;;;;;;;3.03;2.65;;;16.70;70.70;;;;;;4712298;30;20528;-82
2021/05/31 13:24:33;;;;;;;2.83;2.53;;;16.70;74.50;;;;;;4697308;30;20296;-82